Time;durP1;ratioP1;P1;durP2;ratioP2;P2;SDS_P1;SDS_P2;PMS_P1;PMS_P2;Temp;Humidity;BMP_temperature;BMP_pressure;BME280_temperature;BME280_humidity;BME280_pressure;Samples;Min_cycle;Max_cycle;Signal;HPM_P1;HPM_P2
2022/02/27 00:01:41;;;;;;;22.63;12.40;;;;;;;4.07;57.19;95349.28;4970041;23;20055;-77
2022/02/27 00:04:06;;;;;;;25.80;14.20;;;;;;;4.03;57.30;95363.44;4910940;29;20032;-77
2022/02/27 00:06:32;;;;;;;24.83;13.60;;;;;;;4.08;57.40;95340.56;4911095;29;20055;-78
2022/02/27 00:08:58;;;;;;;36.70;13.95;;;;;;;4.08;57.18;95350.06;4934121;29;20434;-77
2022/02/27 00:11:23;;;;;;;23.77;13.50;;;;;;;4.16;56.89;95352.53;4907516;29;20091;-77
2022/02/27 00:13:49;;;;;;;27.50;14.27;;;;;;;4.14;56.93;95345.00;4907578;29;20039;-77
2022/02/27 00:16:15;;;;;;;26.95;14.57;;;;;;;4.19;56.58;95347.81;4889915;29;20041;-78
2022/02/27 00:18:40;;;;;;;28.13;13.55;;;;;;;4.19;56.63;95332.38;4874799;29;20056;-77
2022/02/27 00:21:05;;;;;;;23.58;12.48;;;;;;;4.28;56.15;95340.03;4891154;29;20032;-77
2022/02/27 00:23:31;;;;;;;21.67;12.50;;;;;;;4.27;56.35;95330.69;4907865;29;20040;-78
2022/02/27 00:25:56;;;;;;;27.48;14.15;;;;;;;4.22;56.07;95339.75;4906715;29;20036;-77
2022/02/27 00:28:22;;;;;;;24.98;14.00;;;;;;;4.15;56.28;95323.44;4890500;29;20446;-78
2022/02/27 00:30:47;;;;;;;26.23;13.38;;;;;;;4.11;56.70;95324.78;4907787;29;20587;-77
2022/02/27 00:33:12;;;;;;;28.38;13.25;;;;;;;4.17;56.45;95330.97;4938262;23;20048;-78
2022/02/27 00:35:39;;;;;;;23.25;12.63;;;;;;;4.14;55.96;95303.03;4917589;29;20393;-77
2022/02/27 00:38:05;;;;;;;25.75;13.23;;;;;;;4.28;56.00;95301.41;4914865;29;20566;-78
2022/02/27 00:40:31;;;;;;;22.65;13.30;;;;;;;4.22;56.26;95308.84;4956031;23;20029;-77
2022/02/27 00:42:57;;;;;;;23.98;13.73;;;;;;;4.30;55.94;95300.25;4917220;29;20036;-77
2022/02/27 00:45:23;;;;;;;28.13;13.57;;;;;;;4.21;55.72;95296.16;4916547;29;20043;-77
2022/02/27 00:47:48;;;;;;;27.05;13.88;;;;;;;4.14;56.06;95313.31;4916622;29;20036;-77
2022/02/27 00:50:14;;;;;;;28.05;13.57;;;;;;;4.10;56.36;95324.94;4916359;29;20452;-77
2022/02/27 00:52:41;;;;;;;21.67;12.85;;;;;;;4.22;55.98;95293.41;4915260;29;20036;-77
2022/02/27 00:55:07;;;;;;;24.25;14.18;;;;;;;4.21;56.07;95309.81;4884277;29;20081;-77
2022/02/27 00:57:33;;;;;;;24.67;13.40;;;;;;;4.19;56.12;95275.75;4899203;29;20492;-77
2022/02/27 00:59:58;;;;;;;27.13;13.57;;;;;;;4.15;56.07;95315.72;4916096;29;20039;-77
2022/02/27 01:02:24;;;;;;;24.42;13.68;;;;;;;4.08;56.28;95307.13;4915907;29;20036;-77
2022/02/27 01:04:49;;;;;;;20.98;13.05;;;;;;;4.09;56.30;95290.69;4914532;29;20071;-77
2022/02/27 01:07:15;;;;;;;27.40;15.25;;;;;;;4.15;56.38;95284.81;4914503;29;20024;-77
2022/02/27 01:09:40;;;;;;;32.95;14.25;;;;;;;4.15;56.54;95310.56;4916123;29;20386;-77
2022/02/27 01:12:06;;;;;;;28.58;14.55;;;;;;;4.12;55.96;95300.63;4891163;29;20033;-77
2022/02/27 01:14:32;;;;;;;26.75;13.95;;;;;;;4.10;56.60;95292.28;4947974;23;20047;-77
2022/02/27 01:17:01;;;;;;;19.58;13.07;;;;;;;4.13;56.54;95289.34;4946398;29;20032;-77
2022/02/27 01:19:29;;;;;;;33.15;14.43;;;;;;;4.08;56.79;95322.56;4938785;29;20115;-78
2022/02/27 01:21:55;;;;;;;35.53;14.65;;;;;;;4.11;56.77;95291.31;4905218;29;20052;-78
2022/02/27 01:24:21;;;;;;;22.80;14.65;;;;;;;4.20;56.28;95303.09;4884068;29;20048;-78
2022/02/27 01:26:46;;;;;;;27.85;14.68;;;;;;;4.19;56.77;95305.84;4901285;29;20492;-79
2022/02/27 01:29:12;;;;;;;25.38;15.50;;;;;;;4.15;56.92;95310.56;4901447;29;20032;-78
2022/02/27 01:31:37;;;;;;;31.50;14.98;;;;;;;4.27;56.33;95302.38;4925458;29;20036;-79
2022/02/27 01:36:31;;;;;;;21.95;15.25;;;;;;;4.36;56.04;95296.94;4936954;23;20055;-79
2022/02/27 01:38:56;;;;;;;26.30;17.00;;;;;;;4.35;56.59;95279.09;4932429;29;20028;-79
2022/02/27 01:41:22;;;;;;;27.88;16.92;;;;;;;4.33;56.35;95293.94;4933166;23;20122;-78
2022/02/27 01:43:47;;;;;;;25.35;16.15;;;;;;;4.24;56.39;95269.28;4928522;29;20536;-79
2022/02/27 01:46:16;;;;;;;31.48;17.63;;;;;;;4.19;56.44;95262.09;4927031;29;20043;-78
2022/02/27 01:48:41;;;;;;;28.75;17.88;;;;;;;4.38;56.46;95258.13;4926543;29;20044;-78
2022/02/27 01:51:07;;;;;;;28.25;17.60;;;;;;;4.29;56.32;95265.19;4926391;29;20095;-79
2022/02/27 01:53:33;;;;;;;31.02;17.67;;;;;;;4.27;56.75;95284.38;4928655;29;20032;-79
2022/02/27 01:55:59;;;;;;;30.55;17.20;;;;;;;4.40;56.25;95284.53;4926238;29;20111;-79
2022/02/27 01:58:26;;;;;;;30.75;16.30;;;;;;;4.31;56.63;95273.50;4925959;29;20083;-79
2022/02/27 02:00:51;;;;;;;30.30;18.05;;;;;;;4.22;56.62;95265.09;4927296;29;20047;-78
2022/02/27 02:03:17;;;;;;;24.85;15.40;;;;;;;4.29;56.38;95272.09;4927343;29;20044;-79
2022/02/27 02:05:42;;;;;;;28.08;16.08;;;;;;;4.34;56.67;95267.19;4950119;29;20040;-79
2022/02/27 02:08:07;;;;;;;32.20;15.85;;;;;;;4.16;56.50;95276.13;4932042;29;20130;-79
2022/02/27 02:10:33;;;;;;;27.35;14.75;;;;;;;4.13;56.97;95297.06;4925132;29;20469;-78
2022/02/27 02:12:58;;;;;;;21.88;14.60;;;;;;;4.23;56.32;95289.09;4948343;29;20027;-78
2022/02/27 02:15:24;;;;;;;23.02;14.45;;;;;;;4.28;56.40;95304.78;4929221;23;20453;-78
2022/02/27 02:17:56;;;;;;;24.75;14.30;;;;;;;4.25;56.03;95310.28;4929328;29;20056;-78
2022/02/27 02:22:51;;;;;;;30.95;13.90;;;;;;;4.16;56.63;95250.38;5002284;23;19968;-78
2022/02/27 02:25:16;;;;;;;27.38;13.70;;;;;;;4.26;55.91;95249.31;4926299;29;20047;-78
2022/02/27 02:27:44;;;;;;;23.90;13.88;;;;;;;4.24;56.25;95226.31;4923738;29;20044;-78
2022/02/27 02:30:10;;;;;;;25.90;14.07;;;;;;;4.31;56.14;95221.22;5011549;23;20126;-78
2022/02/27 02:32:54;;;;;;;22.45;13.65;;;;;;;4.18;56.54;95225.25;4934010;29;20598;-78
2022/02/27 02:35:19;;;;;;;27.92;14.07;;;;;;;4.21;55.94;95232.59;4930494;23;20416;-78
2022/02/27 02:37:45;;;;;;;31.17;13.75;;;;;;;4.24;55.64;95248.69;4915444;29;20040;-78
2022/02/27 02:40:11;;;;;;;21.38;14.35;;;;;;;4.13;56.13;95273.13;4915537;29;20036;-78
2022/02/27 02:42:40;;;;;;;27.15;13.95;;;;;;;4.13;56.42;95276.50;4914520;29;20497;-78
2022/02/27 02:45:06;;;;;;;26.55;14.00;;;;;;;4.17;56.12;95288.00;4898492;29;20098;-78
2022/02/27 02:47:31;;;;;;;27.17;15.60;;;;;;;4.31;55.74;95308.75;4915423;29;20028;-78
2022/02/27 02:49:57;;;;;;;24.88;13.55;;;;;;;4.35;54.98;95328.00;4898292;29;20893;-78
2022/02/27 02:52:23;;;;;;;33.70;14.63;;;;;;;4.29;55.62;95332.13;4898234;29;20576;-78
2022/02/27 02:54:49;;;;;;;21.73;12.52;;;;;;;4.41;55.29;95322.16;4913629;29;20472;-78
2022/02/27 02:57:14;;;;;;;21.77;12.73;;;;;;;4.39;54.71;95335.22;4898003;29;20051;-78
2022/02/27 02:59:40;;;;;;;27.60;14.57;;;;;;;4.42;55.08;95300.59;4898028;29;20028;-78
2022/02/27 03:02:09;;;;;;;26.58;14.38;;;;;;;4.24;55.78;95305.31;4898391;29;20035;-78
2022/02/27 03:04:35;;;;;;;23.27;14.40;;;;;;;4.33;55.27;95311.94;4910582;29;20055;-78
2022/02/27 03:07:01;;;;;;;24.63;14.93;;;;;;;4.19;55.76;95326.44;4914728;29;20082;-78
2022/02/27 03:09:26;;;;;;;27.77;15.43;;;;;;;4.00;56.81;95316.69;4914090;29;20488;-78
2022/02/27 03:11:52;;;;;;;22.85;13.80;;;;;;;4.08;56.32;95329.47;4897605;29;20099;-78
2022/02/27 03:14:17;;;;;;;36.08;15.95;;;;;;;4.11;56.79;95317.06;4882277;29;20036;-78
2022/02/27 03:16:43;;;;;;;33.80;16.15;;;;;;;4.10;56.40;95337.81;4905346;29;20043;-78
2022/02/27 03:19:08;;;;;;;29.90;15.93;;;;;;;3.94;57.32;95345.72;4913485;29;20044;-78
2022/02/27 03:21:34;;;;;;;29.48;16.50;;;;;;;4.00;57.08;95357.88;4897667;29;20449;-78
2022/02/27 03:23:59;;;;;;;24.13;15.23;;;;;;;4.11;57.15;95345.34;4914458;29;20036;-78
2022/02/27 03:26:25;;;;;;;32.17;16.15;;;;;;;4.19;57.01;95352.97;4914696;29;20067;-79
2022/02/27 03:28:50;;;;;;;30.13;17.35;;;;;;;4.04;57.31;95354.75;4914297;29;20044;-78
2022/02/27 03:31:16;;;;;;;27.63;15.73;;;;;;;4.10;57.56;95374.66;4965243;23;20128;-78
2022/02/27 03:33:41;;;;;;;24.13;16.33;;;;;;;4.12;56.93;95341.81;4904665;29;20068;-78
2022/02/27 03:36:07;;;;;;;22.30;14.68;;;;;;;4.15;57.19;95338.06;4896095;29;20032;-80
2022/02/27 03:38:32;;;;;;;27.20;16.00;;;;;;;4.18;57.92;95333.34;4879952;29;20073;-80
2022/02/27 03:40:58;;;;;;;28.23;15.40;;;;;;;4.14;57.59;95339.06;4895274;29;20128;-79
2022/02/27 03:43:23;;;;;;;31.27;16.10;;;;;;;4.16;57.89;95337.88;4896029;29;20887;-79
2022/02/27 03:45:49;;;;;;;25.75;16.42;;;;;;;3.97;58.67;95347.94;4895585;29;20568;-78
2022/02/27 03:48:14;;;;;;;28.08;17.20;;;;;;;4.00;58.63;95343.22;4895147;29;20064;-79
2022/02/27 03:50:40;;;;;;;29.35;17.23;;;;;;;4.08;58.48;95345.72;4895494;23;20527;-78
2022/02/27 03:53:05;;;;;;;35.15;17.60;;;;;;;4.13;58.87;95333.09;4897118;29;20039;-79
2022/02/27 03:55:31;;;;;;;24.83;16.05;;;;;;;4.08;59.21;95353.44;4894236;29;20040;-78
2022/02/27 03:57:56;;;;;;;33.80;19.35;;;;;;;4.14;60.05;95339.06;4896134;29;20045;-79
2022/02/27 04:00:22;;;;;;;32.85;17.58;;;;;;;4.06;60.16;95327.06;4895265;29;20039;-78
2022/02/27 04:02:47;;;;;;;32.05;19.35;;;;;;;3.90;61.82;95332.38;4896422;29;20032;-78
2022/02/27 04:05:14;;;;;;;29.60;18.88;;;;;;;3.80;62.17;95321.59;4886527;23;20063;-79
2022/02/27 04:07:39;;;;;;;33.55;18.60;;;;;;;3.73;62.69;95313.75;4948408;23;20032;-80
2022/02/27 04:10:05;;;;;;;40.92;19.17;;;;;;;3.72;63.14;95326.78;4926704;29;20036;-79
2022/02/27 04:12:30;;;;;;;28.75;18.35;;;;;;;3.74;63.28;95328.25;4923560;29;20628;-79
2022/02/27 04:14:56;;;;;;;33.78;18.85;;;;;;;3.77;63.24;95330.47;4921271;29;20068;-78
2022/02/27 04:17:21;;;;;;;28.20;17.30;;;;;;;3.82;63.00;95355.63;4905231;29;20031;-80
2022/02/27 04:19:47;;;;;;;37.30;19.00;;;;;;;3.81;63.17;95354.84;4906581;29;20063;-77
2022/02/27 04:22:13;;;;;;;35.22;17.50;;;;;;;3.77;63.20;95389.63;4922796;29;20043;-78
2022/02/27 04:24:38;;;;;;;36.70;20.30;;;;;;;3.57;63.93;95378.22;4922035;29;20032;-78
2022/02/27 04:27:03;;;;;;;39.05;19.13;;;;;;;3.54;64.02;95368.28;4898686;23;20043;-80
2022/02/27 04:29:29;;;;;;;43.85;19.80;;;;;;;3.58;63.86;95362.63;4928308;29;20432;-79
2022/02/27 04:31:54;;;;;;;37.67;20.85;;;;;;;3.42;64.48;95352.50;4922685;29;20059;-79
2022/02/27 04:34:20;;;;;;;39.50;19.73;;;;;;;3.45;64.60;95359.06;4923947;29;20028;-79
2022/02/27 04:36:45;;;;;;;37.50;20.85;;;;;;;3.58;64.21;95388.34;4925048;29;20044;-79
2022/02/27 04:39:11;;;;;;;36.92;20.73;;;;;;;3.46;64.44;95358.88;4907204;29;20058;-79
2022/02/27 04:41:36;;;;;;;38.97;20.60;;;;;;;3.36;64.88;95358.31;4889971;29;20032;-79
2022/02/27 04:44:02;;;;;;;35.60;20.80;;;;;;;3.36;65.34;95360.88;4922694;29;20341;-79
2022/02/27 04:46:27;;;;;;;34.75;19.05;;;;;;;3.28;66.07;95342.97;4924586;29;20031;-79
2022/02/27 04:48:53;;;;;;;41.90;21.17;;;;;;;3.29;65.72;95340.22;4923722;29;20046;-79
2022/02/27 04:51:18;;;;;;;36.78;21.05;;;;;;;3.25;66.22;95348.44;4930477;29;20031;-79
2022/02/27 04:53:45;;;;;;;46.05;19.95;;;;;;;3.13;67.05;95347.25;4908306;29;20929;-79
2022/02/27 04:56:11;;;;;;;36.85;21.40;;;;;;;3.17;67.55;95330.53;4913785;23;20040;-79
2022/02/27 04:58:36;;;;;;;35.33;21.98;;;;;;;3.08;68.20;95341.81;4936563;29;20039;-79
2022/02/27 05:01:02;;;;;;;45.28;21.67;;;;;;;2.91;69.32;95336.81;4931444;29;20040;-79
2022/02/27 05:03:27;;;;;;;34.95;19.20;;;;;;;3.06;68.95;95333.50;4916702;29;20047;-79
2022/02/27 05:05:53;;;;;;;36.80;20.92;;;;;;;2.92;69.66;95312.72;4932811;29;20487;-79
2022/02/27 05:08:18;;;;;;;37.75;19.77;;;;;;;2.95;69.66;95332.94;4928565;29;20040;-79
2022/02/27 05:10:44;;;;;;;31.00;21.08;;;;;;;2.75;70.98;95331.78;4942734;29;20038;-78
2022/02/27 05:13:09;;;;;;;35.90;20.88;;;;;;;2.81;71.04;95336.25;4940213;28;21224;-78
2022/02/27 05:15:35;;;;;;;33.35;20.90;;;;;;;2.76;71.88;95317.97;4948701;29;20054;-79
2022/02/27 05:18:01;;;;;;;43.03;21.88;;;;;;;2.75;71.95;95342.03;4896271;29;20036;-80
2022/02/27 05:20:26;;;;;;;37.95;22.60;;;;;;;2.59;73.36;95337.81;4909839;29;20055;-79
2022/02/27 05:22:58;;;;;;;41.90;22.30;;;;;;;2.62;73.31;95352.09;4926043;29;20024;-78
2022/02/27 05:25:23;;;;;;;36.77;22.13;;;;;;;2.60;73.90;95339.44;4927458;29;20055;-79
2022/02/27 05:27:51;;;;;;;38.80;22.83;;;;;;;2.45;74.62;95356.53;4927262;29;20673;-79
2022/02/27 05:30:18;;;;;;;40.38;24.15;;;;;;;2.35;75.60;95366.97;4924882;29;20032;-78
2022/02/27 05:32:45;;;;;;;40.03;22.77;;;;;;;2.51;75.78;95357.59;4910375;29;20039;-79
2022/02/27 05:35:10;;;;;;;44.08;23.35;;;;;;;2.48;76.07;95374.16;4925220;29;20118;-79
2022/02/27 05:37:36;;;;;;;43.28;24.55;;;;;;;2.37;77.21;95354.78;4910077;29;20778;-79
2022/02/27 05:40:05;;;;;;;39.88;25.58;;;;;;;2.24;77.75;95364.78;4893466;29;20052;-79
2022/02/27 05:42:31;;;;;;;40.38;24.90;;;;;;;2.17;78.48;95363.84;5022526;23;20067;-79
2022/02/27 05:44:57;;;;;;;43.70;25.17;;;;;;;2.15;78.81;95340.13;4930232;29;20039;-78
2022/02/27 05:47:22;;;;;;;60.97;34.97;;;;;;;2.10;79.42;95352.63;4925887;29;20050;-78
2022/02/27 05:49:48;;;;;;;43.95;22.50;;;;;;;2.12;80.33;95344.81;4926125;29;20044;-79
2022/02/27 05:52:13;;;;;;;46.40;22.42;;;;;;;2.17;79.30;95330.50;4925402;29;20036;-79
2022/02/27 05:54:39;;;;;;;37.50;22.90;;;;;;;2.37;79.00;95336.81;4926354;29;20040;-79
2022/02/27 05:57:04;;;;;;;42.50;23.05;;;;;;;2.22;79.67;95330.00;4928343;29;20034;-79
2022/02/27 05:59:30;;;;;;;40.90;22.73;;;;;;;2.34;79.70;95337.16;4910015;29;20051;-79
2022/02/27 06:01:55;;;;;;;34.75;21.45;;;;;;;2.24;79.81;95349.38;4927380;29;20031;-78
2022/02/27 06:04:21;;;;;;;42.80;24.60;;;;;;;2.10;80.23;95355.19;4927021;29;20040;-79
2022/02/27 06:06:47;;;;;;;45.22;25.20;;;;;;;2.02;80.46;95352.69;4909522;29;20114;-79
2022/02/27 06:09:12;;;;;;;39.85;23.48;;;;;;;1.89;81.32;95350.63;4927860;29;20052;-79
2022/02/27 06:11:38;;;;;;;41.47;23.98;;;;;;;1.69;82.27;95344.28;4936199;29;20055;-79
2022/02/27 06:14:03;;;;;;;43.47;25.75;;;;;;;1.77;82.59;95347.59;4925989;29;20107;-79
2022/02/27 06:16:29;;;;;;;37.40;23.20;;;;;;;1.77;82.48;95349.38;4893467;29;20061;-79
2022/02/27 06:18:54;;;;;;;35.78;23.52;;;;;;;1.80;82.94;95362.69;4924074;29;20059;-78
2022/02/27 06:21:20;;;;;;;36.83;23.02;;;;;;;1.74;83.16;95359.97;4908946;29;20074;-79
2022/02/27 06:23:45;;;;;;;43.05;24.20;;;;;;;1.60;83.41;95376.81;4923437;29;20074;-78
2022/02/27 06:26:11;;;;;;;35.70;24.70;;;;;;;1.60;84.06;95366.56;4925543;29;20512;-78
2022/02/27 06:28:36;;;;;;;37.25;22.60;;;;;;;1.56;84.22;95352.47;4932564;29;20028;-78
2022/02/27 06:31:02;;;;;;;33.65;19.83;;;;;;;1.55;84.07;95363.69;4911442;29;20047;-78
2022/02/27 06:33:27;;;;;;;33.80;21.90;;;;;;;1.47;84.11;95363.72;4910985;29;20028;-78
2022/02/27 06:35:53;;;;;;;35.88;23.63;;;;;;;1.46;84.95;95365.47;4909435;29;20122;-78
2022/02/27 06:38:18;;;;;;;34.22;20.88;;;;;;;1.54;85.12;95358.72;4907726;29;20493;-77
2022/02/27 06:40:44;;;;;;;32.72;21.17;;;;;;;1.56;84.21;95367.03;4924906;29;20036;-78
2022/02/27 06:43:09;;;;;;;35.42;21.30;;;;;;;1.52;84.16;95361.44;4923767;29;20035;-78
2022/02/27 06:45:35;;;;;;;31.63;21.88;;;;;;;1.53;84.55;95357.13;4925351;29;20134;-78
2022/02/27 06:48:00;;;;;;;39.83;23.25;;;;;;;1.55;84.73;95343.19;4931016;29;20028;-78
2022/02/27 06:50:25;;;;;;;37.35;23.10;;;;;;;1.62;84.80;95359.50;4947921;29;20034;-78
2022/02/27 06:52:51;;;;;;;35.45;22.73;;;;;;;1.60;84.50;95365.75;4907930;29;20051;-78
2022/02/27 06:55:16;;;;;;;45.17;23.27;;;;;;;1.56;85.15;95360.16;4947865;29;20459;-78
2022/02/27 06:57:46;;;;;;;34.88;21.90;;;;;;;1.61;85.09;95383.53;4908802;29;20032;-78
2022/02/27 07:00:15;;;;;;;38.67;22.40;;;;;;;1.66;84.70;95353.09;4915164;29;20028;-78
2022/02/27 07:02:41;;;;;;;35.50;22.13;;;;;;;1.57;85.03;95387.38;4908411;29;20072;-78
2022/02/27 07:05:07;;;;;;;32.03;20.60;;;;;;;1.73;84.67;95376.31;4931703;29;20075;-78
2022/02/27 07:07:33;;;;;;;33.30;22.23;;;;;;;1.76;84.21;95375.97;4924430;29;20024;-78
2022/02/27 07:10:00;;;;;;;38.05;23.77;;;;;;;1.65;85.05;95364.31;4907625;29;20043;-78
2022/02/27 07:12:33;;;;;;;36.83;22.13;;;;;;;1.69;84.65;95375.03;4947261;29;20168;-77
2022/02/27 07:14:59;;;;;;;39.97;22.05;;;;;;;1.74;84.07;95381.28;4925377;29;20425;-78
2022/02/27 07:17:25;;;;;;;41.00;24.00;;;;;;;1.70;84.67;95372.31;4905543;29;20035;-77
2022/02/27 07:19:50;;;;;;;39.25;23.90;;;;;;;1.58;84.81;95394.13;4926041;29;20408;-78
2022/02/27 07:22:16;;;;;;;44.40;23.90;;;;;;;1.67;84.91;95372.66;4929834;29;20044;-79
2022/02/27 07:24:42;;;;;;;39.13;22.90;;;;;;;1.85;84.19;95369.09;4916216;29;20047;-79
2022/02/27 07:27:07;;;;;;;36.60;23.10;;;;;;;1.71;84.41;95389.28;4933451;29;20064;-79
2022/02/27 07:29:33;;;;;;;37.13;23.90;;;;;;;1.63;84.51;95368.81;4907962;29;20034;-79
2022/02/27 07:31:59;;;;;;;41.13;25.67;;;;;;;1.64;85.12;95367.84;4907744;29;20517;-79
2022/02/27 07:34:24;;;;;;;39.95;27.02;;;;;;;1.57;85.64;95356.63;4967245;23;20086;-79
2022/02/27 07:36:51;;;;;;;43.70;25.45;;;;;;;1.65;85.51;95371.22;4914628;29;20040;-79
2022/02/27 07:39:19;;;;;;;36.45;24.50;;;;;;;1.69;85.26;95375.03;4898034;29;20047;-78
2022/02/27 07:41:45;;;;;;;41.83;24.23;;;;;;;1.63;84.95;95363.69;4913332;29;20477;-79
2022/02/27 07:44:10;;;;;;;35.78;23.80;;;;;;;1.66;84.92;95370.25;4912250;29;20055;-79
2022/02/27 07:46:36;;;;;;;78.88;42.83;;;;;;;1.70;85.49;95364.63;4897591;29;20088;-79
2022/02/27 07:49:01;;;;;;;44.22;22.23;;;;;;;1.59;85.25;95369.28;4914824;29;20485;-79
2022/02/27 07:51:26;;;;;;;38.33;22.10;;;;;;;1.69;85.91;95359.66;4915547;29;20654;-79
2022/02/27 07:53:52;;;;;;;37.38;24.85;;;;;;;1.73;85.49;95356.59;4897704;29;20500;-78
2022/02/27 07:56:17;;;;;;;36.30;22.77;;;;;;;1.74;84.77;95354.84;4896469;29;20055;-77
2022/02/27 07:58:43;;;;;;;29.55;22.35;;;;;;;1.79;84.67;95355.97;4912146;29;20047;-76
2022/02/27 08:01:09;;;;;;;33.08;22.98;;;;;;;1.82;84.54;95359.97;4911653;29;20411;-76
2022/02/27 08:03:34;;;;;;;32.97;22.92;;;;;;;1.66;85.10;95360.00;4896199;29;20028;-76
2022/02/27 08:06:00;;;;;;;36.92;22.58;;;;;;;1.54;85.54;95356.97;4911236;29;20036;-76
2022/02/27 08:08:25;;;;;;;34.35;22.95;;;;;;;1.61;85.96;95352.78;4913266;29;20039;-77
2022/02/27 08:10:50;;;;;;;33.33;22.35;;;;;;;1.68;85.96;95368.31;4913108;29;20032;-76
2022/02/27 08:13:16;;;;;;;32.72;21.00;;;;;;;1.71;85.00;95378.25;4913258;29;20547;-77
2022/02/27 08:15:41;;;;;;;36.08;22.25;;;;;;;1.66;85.34;95378.72;4913278;29;20415;-76
2022/02/27 08:18:07;;;;;;;33.42;21.50;;;;;;;1.73;84.99;95379.66;4913191;29;20040;-75
2022/02/27 08:20:33;;;;;;;32.42;19.85;;;;;;;1.74;84.67;95371.00;4913053;29;20047;-77
2022/02/27 08:22:59;;;;;;;38.22;21.20;;;;;;;1.78;84.84;95381.75;4911478;29;20622;-77
2022/02/27 08:25:24;;;;;;;29.73;20.98;;;;;;;1.83;84.77;95386.41;4880316;29;20036;-77
2022/02/27 08:27:50;;;;;;;31.90;20.00;;;;;;;1.92;84.37;95370.00;4910648;29;20435;-77
2022/02/27 08:30:15;;;;;;;26.52;18.83;;;;;;;1.90;84.45;95371.94;4912704;29;20048;-75
2022/02/27 08:32:41;;;;;;;31.80;19.45;;;;;;;1.96;84.13;95371.31;4913722;29;20526;-76
2022/02/27 08:35:06;;;;;;;21.60;16.65;;;;;;;2.01;83.48;95379.28;4915166;29;20476;-79
2022/02/27 08:37:32;;;;;;;25.73;19.25;;;;;;;1.98;83.38;95379.63;4915936;29;20043;-76
2022/02/27 08:39:58;;;;;;;33.03;18.65;;;;;;;1.97;83.84;95367.78;4916096;29;20028;-76
2022/02/27 08:42:26;;;;;;;25.45;17.77;;;;;;;1.98;83.46;95359.13;4916188;29;20048;-76
2022/02/27 08:44:51;;;;;;;31.23;19.42;;;;;;;1.96;83.55;95345.66;4915139;29;20091;-76
2022/02/27 08:47:17;;;;;;;31.02;19.38;;;;;;;2.11;83.44;95354.22;4915737;29;20024;-76
2022/02/27 08:49:42;;;;;;;25.73;18.52;;;;;;;2.00;83.38;95357.19;4914590;29;20036;-76
2022/02/27 08:52:07;;;;;;;26.00;18.02;;;;;;;1.96;83.38;95350.78;4914805;29;20484;-76
2022/02/27 08:54:33;;;;;;;25.85;16.80;;;;;;;1.92;83.70;95360.56;4898968;29;20047;-77
2022/02/27 08:56:59;;;;;;;23.65;17.92;;;;;;;1.89;84.03;95354.97;4883771;29;20036;-76
2022/02/27 08:59:26;;;;;;;22.55;16.13;;;;;;;1.92;83.79;95355.44;4915633;29;20032;-75
2022/02/27 09:01:59;;;;;;;22.05;17.08;;;;;;;2.02;83.64;95361.16;4912887;29;20032;-75
2022/02/27 09:04:25;;;;;;;18.48;15.40;;;;;;;1.93;83.51;95354.47;4875529;29;20044;-75
2022/02/27 09:06:51;;;;;;;18.17;15.25;;;;;;;1.92;84.18;95359.75;4915630;29;20536;-75
2022/02/27 09:09:16;;;;;;;22.02;15.80;;;;;;;1.96;83.94;95363.63;4915614;29;20162;-75
2022/02/27 09:11:42;;;;;;;21.30;16.10;;;;;;;1.98;83.84;95356.53;4915971;29;20114;-76
2022/02/27 09:14:07;;;;;;;18.05;14.65;;;;;;;2.02;82.87;95348.34;4915869;29;20429;-76
2022/02/27 09:16:33;;;;;;;18.50;15.13;;;;;;;1.95;83.06;95349.16;4914041;29;20536;-75
2022/02/27 09:18:58;;;;;;;20.08;14.52;;;;;;;1.93;83.66;95343.41;4899854;29;20095;-75
2022/02/27 09:21:24;;;;;;;20.85;16.13;;;;;;;1.91;83.68;95353.03;4914170;29;20051;-75
2022/02/27 09:23:49;;;;;;;21.70;15.73;;;;;;;1.91;83.59;95342.78;4913518;29;20082;-75
2022/02/27 09:26:15;;;;;;;19.30;14.98;;;;;;;1.88;83.63;95348.22;4896325;29;20040;-75
2022/02/27 09:28:40;;;;;;;23.20;15.40;;;;;;;1.88;84.11;95337.97;4898546;29;20040;-75
2022/02/27 09:31:05;;;;;;;34.40;19.90;;;;;;;1.89;84.84;95339.56;4913883;29;20032;-75
2022/02/27 09:33:32;;;;;;;20.13;14.63;;;;;;;1.96;84.04;95335.41;4914006;29;20420;-75
2022/02/27 09:35:57;;;;;;;19.20;14.75;;;;;;;1.98;83.91;95339.41;4898477;29;20036;-76
2022/02/27 09:38:23;;;;;;;21.88;15.82;;;;;;;2.03;83.99;95357.63;4912872;29;20039;-78
2022/02/27 09:40:49;;;;;;;18.23;15.15;;;;;;;1.92;84.43;95349.50;4882827;29;20047;-76
2022/02/27 09:43:16;;;;;;;20.17;14.60;;;;;;;2.04;84.57;95343.06;4914851;29;20036;-76
2022/02/27 09:45:42;;;;;;;20.65;14.05;;;;;;;2.02;84.18;95338.09;4928719;29;20039;-76
2022/02/27 09:48:07;;;;;;;17.67;14.02;;;;;;;2.15;83.73;95345.25;4882689;29;20099;-76
2022/02/27 09:50:34;;;;;;;15.65;12.93;;;;;;;2.14;83.31;95343.66;4914924;29;20043;-76
2022/02/27 09:53:00;;;;;;;16.83;12.65;;;;;;;2.02;84.19;95338.09;4913283;29;20066;-76
2022/02/27 09:55:25;;;;;;;14.65;12.07;;;;;;;2.08;84.07;95339.97;4912981;29;20593;-76
2022/02/27 09:57:51;;;;;;;15.10;12.50;;;;;;;2.17;83.69;95333.06;4913703;29;20114;-76
2022/02/27 10:00:17;;;;;;;20.98;13.02;;;;;;;2.25;83.16;95347.59;4913467;29;20108;-76
2022/02/27 10:03:01;;;;;;;17.92;11.73;;;;;;;2.23;83.26;95340.09;4897790;29;20047;-76
2022/02/27 10:05:27;;;;;;;16.90;12.57;;;;;;;2.18;83.41;95334.66;4913877;29;20131;-76
2022/02/27 10:07:59;;;;;;;17.40;12.70;;;;;;;2.10;83.75;95347.50;4914887;29;20043;-76
2022/02/27 10:10:24;;;;;;;16.65;13.30;;;;;;;2.15;83.86;95324.75;4896980;29;20032;-76
2022/02/27 10:12:50;;;;;;;13.20;11.60;;;;;;;2.27;83.52;95328.50;4913313;29;20655;-76
2022/02/27 10:15:15;;;;;;;12.55;11.30;;;;;;;2.27;83.36;95343.91;4896720;29;20039;-77
2022/02/27 10:17:42;;;;;;;12.05;10.30;;;;;;;2.45;82.28;95332.63;4914050;29;20469;-76
2022/02/27 10:20:08;;;;;;;11.43;9.63;;;;;;;2.47;81.88;95353.78;4914571;29;20079;-76
2022/02/27 10:22:35;;;;;;;13.85;10.95;;;;;;;2.49;81.98;95341.56;4914551;29;20059;-76
2022/02/27 10:25:05;;;;;;;14.85;11.15;;;;;;;2.42;82.29;95334.53;4914541;29;20468;-76
2022/02/27 10:27:43;;;;;;;13.90;11.10;;;;;;;2.61;82.40;95340.22;4913124;29;20465;-76
2022/02/27 10:30:31;;;;;;;31.75;21.23;;;;;;;2.66;81.57;95337.94;4913456;29;20043;-76
2022/02/27 10:32:56;;;;;;;10.52;9.32;;;;;;;2.70;80.99;95344.34;4912363;29;20055;-76
2022/02/27 10:35:34;;;;;;;13.43;10.73;;;;;;;2.61;81.03;95335.09;4914276;29;20397;-76
2022/02/27 10:38:00;;;;;;;13.57;10.52;;;;;;;2.54;80.91;95329.81;4912665;29;20032;-76
2022/02/27 10:40:33;;;;;;;12.95;10.38;;;;;;;2.56;81.31;95324.53;4897011;29;20054;-76
2022/02/27 10:42:59;;;;;;;;;;;;;;;2.61;81.10;95325.63;4927971;29;20028;-76
2022/02/27 10:45:24;;;;;;;14.95;10.80;;;;;;;2.49;81.70;95315.91;4913437;29;19923;-76
2022/02/27 10:47:53;;;;;;;12.35;10.52;;;;;;;2.49;81.73;95323.59;4913003;29;20036;-76
2022/02/27 10:50:19;;;;;;;16.75;12.20;;;;;;;2.61;81.41;95322.25;4882251;29;20052;-76
2022/02/27 10:52:46;;;;;;;14.18;10.68;;;;;;;2.55;81.37;95317.78;4914128;29;20047;-76
2022/02/27 10:55:12;;;;;;;13.60;10.52;;;;;;;2.61;81.14;95314.56;4912825;29;20496;-77
2022/02/27 10:57:44;;;;;;;12.77;10.32;;;;;;;2.56;81.06;95319.38;4913879;29;20036;-77
2022/02/27 11:00:25;;;;;;;17.42;10.25;;;;;;;2.58;80.74;95320.00;4913716;29;20520;-81
2022/02/27 11:02:52;;;;;;;12.60;9.90;;;;;;;2.68;80.23;95307.75;4919309;29;20515;-80
2022/02/27 11:05:20;;;;;;;10.07;9.07;;;;;;;2.66;79.72;95304.56;4919349;29;20123;-79
2022/02/27 11:07:48;;;;;;;10.95;9.85;;;;;;;2.64;80.02;95324.47;4902308;29;20091;-78
2022/02/27 11:10:15;;;;;;;17.10;10.07;;;;;;;2.42;80.72;95311.44;4898126;29;20472;-77
2022/02/27 11:12:41;;;;;;;10.80;9.25;;;;;;;2.35;80.80;95302.03;4913367;29;20114;-78
2022/02/27 11:15:08;;;;;;;12.02;9.25;;;;;;;2.51;81.22;95289.09;4913130;29;20040;-78
2022/02/27 11:17:33;;;;;;;11.15;8.93;;;;;;;2.55;80.93;95290.34;4913257;29;20040;-78
2022/02/27 11:20:04;;;;;;;10.40;9.13;;;;;;;2.40;81.05;95294.59;4897348;29;20032;-78
2022/02/27 11:22:30;;;;;;;11.10;9.23;;;;;;;2.52;80.67;95288.13;4913338;29;20130;-78
2022/02/27 11:24:56;;;;;;;10.38;9.38;;;;;;;2.54;80.92;95295.66;4914137;29;20048;-78
2022/02/27 11:27:27;;;;;;;15.27;9.57;;;;;;;2.42;80.97;95280.63;4928417;29;20528;-78